sensor_id;sensor_type;location;lat;lon;timestamp;temperature;humidity
52435;DHT22;38354;52.892;6.148;2023-05-10T03:02:14;12.00;99.90
52435;DHT22;38354;52.892;6.148;2023-05-10T03:04:40;12.00;99.90
52435;DHT22;38354;52.892;6.148;2023-05-10T03:07:06;12.00;99.90
52435;DHT22;38354;52.892;6.148;2023-05-10T03:09:32;12.00;99.90
52435;DHT22;38354;52.892;6.148;2023-05-10T03:12:09;12.00;99.90
52435;DHT22;38354;52.892;6.148;2023-05-10T03:14:52;12.00;99.90
52435;DHT22;38354;52.892;6.148;2023-05-10T03:17:25;11.90;99.90
52435;DHT22;38354;52.892;6.148;2023-05-10T03:20:20;11.90;99.90
52435;DHT22;38354;52.892;6.148;2023-05-10T03:22:51;12.00;99.90
52435;DHT22;38354;52.892;6.148;2023-05-10T03:25:19;11.90;99.90
52435;DHT22;38354;52.892;6.148;2023-05-10T03:27:46;11.90;99.90
52435;DHT22;38354;52.892;6.148;2023-05-10T03:30:13;11.90;99.90
52435;DHT22;38354;52.892;6.148;2023-05-10T03:32:39;11.90;99.90
52435;DHT22;38354;52.892;6.148;2023-05-10T03:35:09;11.90;99.90
52435;DHT22;38354;52.892;6.148;2023-05-10T03:37:35;11.90;99.90
52435;DHT22;38354;52.892;6.148;2023-05-10T03:40:01;11.90;99.90
52435;DHT22;38354;52.892;6.148;2023-05-10T03:42:32;11.90;99.90
52435;DHT22;38354;52.892;6.148;2023-05-10T03:45:01;12.00;99.90
52435;DHT22;38354;52.892;6.148;2023-05-10T03:47:30;12.00;99.90
52435;DHT22;38354;52.892;6.148;2023-05-10T03:49:55;12.00;99.90
52435;DHT22;38354;52.892;6.148;2023-05-10T03:52:21;12.00;99.90
52435;DHT22;38354;52.892;6.148;2023-05-10T03:54:47;11.90;99.90
52435;DHT22;38354;52.892;6.148;2023-05-10T03:57:12;12.00;99.90
52435;DHT22;38354;52.892;6.148;2023-05-10T03:59:38;12.00;99.90
52435;DHT22;38354;52.892;6.148;2023-05-10T04:02:10;11.90;99.90
52435;DHT22;38354;52.892;6.148;2023-05-10T04:04:45;12.00;99.90
52435;DHT22;38354;52.892;6.148;2023-05-10T04:07:21;12.00;99.90
52435;DHT22;38354;52.892;6.148;2023-05-10T04:09:47;12.00;99.90
52435;DHT22;38354;52.892;6.148;2023-05-10T04:12:13;12.00;99.90
52435;DHT22;38354;52.892;6.148;2023-05-10T04:14:38;11.90;99.90
52435;DHT22;38354;52.892;6.148;2023-05-10T04:17:04;12.00;99.90
52435;DHT22;38354;52.892;6.148;2023-05-10T04:19:31;12.00;99.90
52435;DHT22;38354;52.892;6.148;2023-05-10T04:21:57;11.90;99.90
52435;DHT22;38354;52.892;6.148;2023-05-10T04:26:59;11.90;99.90
52435;DHT22;38354;52.892;6.148;2023-05-10T04:29:28;11.90;99.90
52435;DHT22;38354;52.892;6.148;2023-05-10T04:31:54;11.80;99.90
52435;DHT22;38354;52.892;6.148;2023-05-10T04:34:22;11.90;99.90
52435;DHT22;38354;52.892;6.148;2023-05-10T04:36:51;11.90;99.90
52435;DHT22;38354;52.892;6.148;2023-05-10T04:39:16;11.90;99.90
52435;DHT22;38354;52.892;6.148;2023-05-10T04:41:42;11.90;99.90
52435;DHT22;38354;52.892;6.148;2023-05-10T04:44:08;11.90;99.90
52435;DHT22;38354;52.892;6.148;2023-05-10T04:46:33;11.90;99.90
52435;DHT22;38354;52.892;6.148;2023-05-10T04:48:59;11.90;99.90
52435;DHT22;38354;52.892;6.148;2023-05-10T04:51:25;12.00;99.90
52435;DHT22;38354;52.892;6.148;2023-05-10T04:53:51;11.90;99.90
52435;DHT22;38354;52.892;6.148;2023-05-10T04:56:17;12.00;99.90
52435;DHT22;38354;52.892;6.148;2023-05-10T04:58:43;12.00;99.90
52435;DHT22;38354;52.892;6.148;2023-05-10T05:01:09;12.00;99.90
52435;DHT22;38354;52.892;6.148;2023-05-10T05:03:36;11.90;99.90
52435;DHT22;38354;52.892;6.148;2023-05-10T05:06:02;12.00;99.90
52435;DHT22;38354;52.892;6.148;2023-05-10T05:08:27;12.00;99.90
52435;DHT22;38354;52.892;6.148;2023-05-10T05:10:53;12.10;99.90
52435;DHT22;38354;52.892;6.148;2023-05-10T05:13:20;12.00;99.90
52435;DHT22;38354;52.892;6.148;2023-05-10T05:16:12;12.00;99.90
52435;DHT22;38354;52.892;6.148;2023-05-10T05:18:38;12.10;99.90
52435;DHT22;38354;52.892;6.148;2023-05-10T05:21:17;12.00;99.90
52435;DHT22;38354;52.892;6.148;2023-05-10T05:23:43;12.00;99.90
52435;DHT22;38354;52.892;6.148;2023-05-10T05:26:09;12.00;99.90
52435;DHT22;38354;52.892;6.148;2023-05-10T05:28:35;12.10;99.90
52435;DHT22;38354;52.892;6.148;2023-05-10T05:31:06;12.00;99.90
52435;DHT22;38354;52.892;6.148;2023-05-10T05:33:35;12.00;99.90
52435;DHT22;38354;52.892;6.148;2023-05-10T05:36:05;12.10;99.90
52435;DHT22;38354;52.892;6.148;2023-05-10T05:38:30;12.00;99.90
52435;DHT22;38354;52.892;6.148;2023-05-10T05:40:56;12.10;99.90
52435;DHT22;38354;52.892;6.148;2023-05-10T05:43:22;12.10;99.90
52435;DHT22;38354;52.892;6.148;2023-05-10T05:45:48;12.10;99.90
52435;DHT22;38354;52.892;6.148;2023-05-10T05:48:14;12.20;99.90
52435;DHT22;38354;52.892;6.148;2023-05-10T05:50:40;12.20;99.90
52435;DHT22;38354;52.892;6.148;2023-05-10T05:53:06;12.20;99.90
52435;DHT22;38354;52.892;6.148;2023-05-10T05:55:31;12.20;99.90
52435;DHT22;38354;52.892;6.148;2023-05-10T05:57:57;12.30;99.90
52435;DHT22;38354;52.892;6.148;2023-05-10T06:02:53;12.30;99.90
52435;DHT22;38354;52.892;6.148;2023-05-10T06:05:21;12.20;99.90
52435;DHT22;38354;52.892;6.148;2023-05-10T06:07:47;12.30;99.90
52435;DHT22;38354;52.892;6.148;2023-05-10T06:10:13;12.30;99.90
52435;DHT22;38354;52.892;6.148;2023-05-10T06:12:38;12.30;99.90
52435;DHT22;38354;52.892;6.148;2023-05-10T06:15:04;12.30;99.90
52435;DHT22;38354;52.892;6.148;2023-05-10T06:17:42;12.30;99.90
52435;DHT22;38354;52.892;6.148;2023-05-10T06:20:09;12.40;99.90
52435;DHT22;38354;52.892;6.148;2023-05-10T06:22:35;12.40;99.90
52435;DHT22;38354;52.892;6.148;2023-05-10T06:25:00;12.40;99.90
52435;DHT22;38354;52.892;6.148;2023-05-10T06:27:27;12.50;99.90
52435;DHT22;38354;52.892;6.148;2023-05-10T06:29:59;12.50;99.90
52435;DHT22;38354;52.892;6.148;2023-05-10T06:32:25;12.50;99.90
52435;DHT22;38354;52.892;6.148;2023-05-10T06:34:50;12.60;99.90
52435;DHT22;38354;52.892;6.148;2023-05-10T06:37:16;12.60;99.90
52435;DHT22;38354;52.892;6.148;2023-05-10T06:39:42;12.70;99.90
52435;DHT22;38354;52.892;6.148;2023-05-10T06:42:07;12.70;99.90
52435;DHT22;38354;52.892;6.148;2023-05-10T06:44:33;12.70;99.90
52435;DHT22;38354;52.892;6.148;2023-05-10T06:46:59;12.70;99.90
52435;DHT22;38354;52.892;6.148;2023-05-10T06:49:25;12.70;99.90
52435;DHT22;38354;52.892;6.148;2023-05-10T06:51:50;12.70;99.90
52435;DHT22;38354;52.892;6.148;2023-05-10T06:54:16;12.70;99.90
52435;DHT22;38354;52.892;6.148;2023-05-10T06:56:41;12.60;99.90
52435;DHT22;38354;52.892;6.148;2023-05-10T06:59:07;12.70;99.90
52435;DHT22;38354;52.892;6.148;2023-05-10T07:01:33;12.70;99.90
52435;DHT22;38354;52.892;6.148;2023-05-10T07:03:59;12.70;99.90
52435;DHT22;38354;52.892;6.148;2023-05-10T07:06:24;12.80;99.90
52435;DHT22;38354;52.892;6.148;2023-05-10T07:08:50;12.80;99.90
52435;DHT22;38354;52.892;6.148;2023-05-10T07:11:16;12.80;99.90
52435;DHT22;38354;52.892;6.148;2023-05-10T07:13:42;12.90;99.90
52435;DHT22;38354;52.892;6.148;2023-05-10T07:16:09;12.90;99.90
52435;DHT22;38354;52.892;6.148;2023-05-10T07:18:35;12.90;99.90
52435;DHT22;38354;52.892;6.148;2023-05-10T07:21:01;12.90;99.90
52435;DHT22;38354;52.892;6.148;2023-05-10T07:23:27;13.00;99.90
52435;DHT22;38354;52.892;6.148;2023-05-10T07:25:53;13.00;99.90
52435;DHT22;38354;52.892;6.148;2023-05-10T07:28:19;13.10;99.90
52435;DHT22;38354;52.892;6.148;2023-05-10T07:30:45;13.10;99.90
52435;DHT22;38354;52.892;6.148;2023-05-10T07:33:13;13.20;99.90
52435;DHT22;38354;52.892;6.148;2023-05-10T07:35:39;13.20;99.90
52435;DHT22;38354;52.892;6.148;2023-05-10T07:38:05;13.20;99.90
52435;DHT22;38354;52.892;6.148;2023-05-10T07:40:31;13.20;99.90
52435;DHT22;38354;52.892;6.148;2023-05-10T07:42:56;13.20;99.90
52435;DHT22;38354;52.892;6.148;2023-05-10T07:45:22;13.20;99.90
52435;DHT22;38354;52.892;6.148;2023-05-10T07:47:48;13.10;99.90
52435;DHT22;38354;52.892;6.148;2023-05-10T07:50:14;13.20;99.90
52435;DHT22;38354;52.892;6.148;2023-05-10T07:52:40;13.20;99.90
52435;DHT22;38354;52.892;6.148;2023-05-10T07:57:42;13.10;99.90
52435;DHT22;38354;52.892;6.148;2023-05-10T08:00:08;13.10;99.90
52435;DHT22;38354;52.892;6.148;2023-05-10T08:02:35;13.10;99.90
52435;DHT22;38354;52.892;6.148;2023-05-10T08:05:01;13.10;99.90
52435;DHT22;38354;52.892;6.148;2023-05-10T08:07:27;13.10;99.90
52435;DHT22;38354;52.892;6.148;2023-05-10T08:09:52;13.10;99.90
52435;DHT22;38354;52.892;6.148;2023-05-10T08:12:18;13.10;99.90
52435;DHT22;38354;52.892;6.148;2023-05-10T08:14:44;13.10;99.90
52435;DHT22;38354;52.892;6.148;2023-05-10T08:17:09;13.10;99.90
52435;DHT22;38354;52.892;6.148;2023-05-10T08:19:35;13.20;99.90
52435;DHT22;38354;52.892;6.148;2023-05-10T08:22:01;13.20;99.90
52435;DHT22;38354;52.892;6.148;2023-05-10T08:24:26;13.20;99.90
52435;DHT22;38354;52.892;6.148;2023-05-10T08:26:52;13.20;99.90
52435;DHT22;38354;52.892;6.148;2023-05-10T08:29:18;13.20;99.90
52435;DHT22;38354;52.892;6.148;2023-05-10T08:31:44;13.30;99.90
52435;DHT22;38354;52.892;6.148;2023-05-10T08:34:10;13.20;99.90
52435;DHT22;38354;52.892;6.148;2023-05-10T08:36:36;13.20;99.90
52435;DHT22;38354;52.892;6.148;2023-05-10T08:39:02;13.20;99.90
52435;DHT22;38354;52.892;6.148;2023-05-10T08:41:28;13.20;99.90
52435;DHT22;38354;52.892;6.148;2023-05-10T08:43:55;13.20;99.90
52435;DHT22;38354;52.892;6.148;2023-05-10T08:46:22;13.20;99.90
52435;DHT22;38354;52.892;6.148;2023-05-10T08:48:50;13.30;99.90
52435;DHT22;38354;52.892;6.148;2023-05-10T08:51:27;13.20;99.90
52435;DHT22;38354;52.892;6.148;2023-05-10T08:53:58;13.30;99.90
52435;DHT22;38354;52.892;6.148;2023-05-10T08:56:24;13.40;99.90
52435;DHT22;38354;52.892;6.148;2023-05-10T08:58:50;13.40;99.90
52435;DHT22;38354;52.892;6.148;2023-05-10T09:01:18;13.40;99.90
52435;DHT22;38354;52.892;6.148;2023-05-10T09:03:43;13.50;99.90
52435;DHT22;38354;52.892;6.148;2023-05-10T09:06:12;13.50;99.90
52435;DHT22;38354;52.892;6.148;2023-05-10T09:08:39;13.60;99.90
52435;DHT22;38354;52.892;6.148;2023-05-10T09:11:05;13.70;99.90
52435;DHT22;38354;52.892;6.148;2023-05-10T09:13:31;13.80;99.90
52435;DHT22;38354;52.892;6.148;2023-05-10T09:15:58;13.80;99.90
52435;DHT22;38354;52.892;6.148;2023-05-10T09:18:23;13.90;99.90
52435;DHT22;38354;52.892;6.148;2023-05-10T09:20:49;14.00;99.90
52435;DHT22;38354;52.892;6.148;2023-05-10T09:23:15;14.00;99.90
52435;DHT22;38354;52.892;6.148;2023-05-10T09:25:44;14.10;99.90
52435;DHT22;38354;52.892;6.148;2023-05-10T09:28:09;14.10;99.90
52435;DHT22;38354;52.892;6.148;2023-05-10T09:30:36;14.10;99.90
52435;DHT22;38354;52.892;6.148;2023-05-10T09:33:02;14.10;99.90
52435;DHT22;38354;52.892;6.148;2023-05-10T09:35:30;14.20;99.90
52435;DHT22;38354;52.892;6.148;2023-05-10T09:37:59;14.20;99.90
52435;DHT22;38354;52.892;6.148;2023-05-10T09:40:26;14.20;99.90
52435;DHT22;38354;52.892;6.148;2023-05-10T09:43:03;14.20;99.90
52435;DHT22;38354;52.892;6.148;2023-05-10T09:45:31;14.20;99.90
52435;DHT22;38354;52.892;6.148;2023-05-10T09:47:58;14.20;99.90
52435;DHT22;38354;52.892;6.148;2023-05-10T09:50:24;14.20;99.90
52435;DHT22;38354;52.892;6.148;2023-05-10T09:53:00;14.20;99.90
52435;DHT22;38354;52.892;6.148;2023-05-10T09:55:37;14.20;99.90
52435;DHT22;38354;52.892;6.148;2023-05-10T09:58:04;14.20;99.90
52435;DHT22;38354;52.892;6.148;2023-05-10T10:00:37;14.20;99.90
52435;DHT22;38354;52.892;6.148;2023-05-10T10:03:03;14.20;99.90
52435;DHT22;38354;52.892;6.148;2023-05-10T10:05:34;14.30;99.90
52435;DHT22;38354;52.892;6.148;2023-05-10T10:08:02;14.30;99.90
52435;DHT22;38354;52.892;6.148;2023-05-10T10:10:35;14.30;99.90
52435;DHT22;38354;52.892;6.148;2023-05-10T10:13:04;14.30;99.90
52435;DHT22;38354;52.892;6.148;2023-05-10T10:15:36;14.40;99.90
52435;DHT22;38354;52.892;6.148;2023-05-10T10:18:02;14.40;99.90
52435;DHT22;38354;52.892;6.148;2023-05-10T10:20:29;14.50;99.90
52435;DHT22;38354;52.892;6.148;2023-05-10T10:22:55;14.60;99.90
52435;DHT22;38354;52.892;6.148;2023-05-10T10:25:21;14.60;99.90
52435;DHT22;38354;52.892;6.148;2023-05-10T10:35:32;14.70;99.90
52435;DHT22;38354;52.892;6.148;2023-05-10T10:37:58;14.70;99.90
52435;DHT22;38354;52.892;6.148;2023-05-10T10:40:31;14.70;99.90
52435;DHT22;38354;52.892;6.148;2023-05-10T10:42:58;14.70;99.90
52435;DHT22;38354;52.892;6.148;2023-05-10T10:45:25;14.60;99.90
52435;DHT22;38354;52.892;6.148;2023-05-10T10:48:22;14.50;99.90
52435;DHT22;38354;52.892;6.148;2023-05-10T10:50:56;14.50;99.90
52435;DHT22;38354;52.892;6.148;2023-05-10T10:53:28;14.40;99.90
52435;DHT22;38354;52.892;6.148;2023-05-10T10:56:11;14.40;99.90
52435;DHT22;38354;52.892;6.148;2023-05-10T10:58:39;14.40;99.90
52435;DHT22;38354;52.892;6.148;2023-05-10T11:01:20;14.40;99.90
52435;DHT22;38354;52.892;6.148;2023-05-10T11:06:41;14.40;99.90
52435;DHT22;38354;52.892;6.148;2023-05-10T11:09:09;14.30;99.90
52435;DHT22;38354;52.892;6.148;2023-05-10T11:11:36;14.40;99.90
52435;DHT22;38354;52.892;6.148;2023-05-10T11:14:08;14.30;99.90
52435;DHT22;38354;52.892;6.148;2023-05-10T11:16:43;14.30;99.90
52435;DHT22;38354;52.892;6.148;2023-05-10T11:19:17;14.30;99.90
52435;DHT22;38354;52.892;6.148;2023-05-10T11:21:51;14.30;99.90
52435;DHT22;38354;52.892;6.148;2023-05-10T11:24:22;14.30;99.90
52435;DHT22;38354;52.892;6.148;2023-05-10T11:26:50;14.40;99.90
52435;DHT22;38354;52.892;6.148;2023-05-10T11:29:16;14.40;99.90
52435;DHT22;38354;52.892;6.148;2023-05-10T11:31:43;14.40;99.90
52435;DHT22;38354;52.892;6.148;2023-05-10T11:34:10;14.40;99.90
52435;DHT22;38354;52.892;6.148;2023-05-10T11:36:36;14.50;99.90
52435;DHT22;38354;52.892;6.148;2023-05-10T11:39:02;14.50;99.90
52435;DHT22;38354;52.892;6.148;2023-05-10T11:41:30;14.50;99.90
52435;DHT22;38354;52.892;6.148;2023-05-10T11:43:57;14.60;99.90
52435;DHT22;38354;52.892;6.148;2023-05-10T11:46:25;14.60;99.90
52435;DHT22;38354;52.892;6.148;2023-05-10T11:48:53;14.60;99.90
52435;DHT22;38354;52.892;6.148;2023-05-10T11:51:21;14.60;99.90
52435;DHT22;38354;52.892;6.148;2023-05-10T11:53:49;14.60;99.90
52435;DHT22;38354;52.892;6.148;2023-05-10T11:56:15;14.60;99.90
52435;DHT22;38354;52.892;6.148;2023-05-10T11:58:41;14.60;99.90
52435;DHT22;38354;52.892;6.148;2023-05-10T12:01:08;14.70;99.90
52435;DHT22;38354;52.892;6.148;2023-05-10T12:03:34;14.80;99.90
52435;DHT22;38354;52.892;6.148;2023-05-10T12:06:01;14.70;99.90
52435;DHT22;38354;52.892;6.148;2023-05-10T12:08:29;14.70;99.90
52435;DHT22;38354;52.892;6.148;2023-05-10T12:11:05;14.80;99.90
52435;DHT22;38354;52.892;6.148;2023-05-10T12:13:31;14.80;99.90
52435;DHT22;38354;52.892;6.148;2023-05-10T12:16:19;14.80;99.90
52435;DHT22;38354;52.892;6.148;2023-05-10T12:18:49;14.80;99.90
52435;DHT22;38354;52.892;6.148;2023-05-10T12:21:17;14.80;99.90
52435;DHT22;38354;52.892;6.148;2023-05-10T12:23:45;14.80;99.90
52435;DHT22;38354;52.892;6.148;2023-05-10T12:26:11;14.90;99.90
52435;DHT22;38354;52.892;6.148;2023-05-10T12:28:37;15.00;99.90
52435;DHT22;38354;52.892;6.148;2023-05-10T12:31:04;15.00;99.90
52435;DHT22;38354;52.892;6.148;2023-05-10T12:33:41;15.10;99.90
52435;DHT22;38354;52.892;6.148;2023-05-10T12:36:11;15.20;99.90
52435;DHT22;38354;52.892;6.148;2023-05-10T12:38:42;15.20;99.90
52435;DHT22;38354;52.892;6.148;2023-05-10T12:41:10;15.20;99.90
52435;DHT22;38354;52.892;6.148;2023-05-10T12:43:37;15.20;99.90
52435;DHT22;38354;52.892;6.148;2023-05-10T12:46:13;15.10;99.90
52435;DHT22;38354;52.892;6.148;2023-05-10T12:48:41;15.10;99.90
52435;DHT22;38354;52.892;6.148;2023-05-10T12:51:07;15.00;99.90
52435;DHT22;38354;52.892;6.148;2023-05-10T12:53:38;14.90;99.90
52435;DHT22;38354;52.892;6.148;2023-05-10T12:56:07;14.80;99.90
52435;DHT22;38354;52.892;6.148;2023-05-10T12:58:34;14.80;99.90
52435;DHT22;38354;52.892;6.148;2023-05-10T13:01:00;14.70;99.90
52435;DHT22;38354;52.892;6.148;2023-05-10T13:03:26;14.70;99.90
52435;DHT22;38354;52.892;6.148;2023-05-10T13:05:52;14.70;99.90
52435;DHT22;38354;52.892;6.148;2023-05-10T13:08:17;14.80;99.90
52435;DHT22;38354;52.892;6.148;2023-05-10T13:10:43;14.80;99.90
52435;DHT22;38354;52.892;6.148;2023-05-10T13:13:09;14.80;99.90
52435;DHT22;38354;52.892;6.148;2023-05-10T13:15:35;14.90;99.90
52435;DHT22;38354;52.892;6.148;2023-05-10T13:18:00;15.00;99.90
52435;DHT22;38354;52.892;6.148;2023-05-10T13:20:26;15.10;99.90
52435;DHT22;38354;52.892;6.148;2023-05-10T13:22:52;15.20;99.90
52435;DHT22;38354;52.892;6.148;2023-05-10T13:25:18;15.30;99.90
52435;DHT22;38354;52.892;6.148;2023-05-10T13:27:43;15.30;99.90
52435;DHT22;38354;52.892;6.148;2023-05-10T13:30:09;15.50;99.90
52435;DHT22;38354;52.892;6.148;2023-05-10T13:32:37;15.50;99.90
52435;DHT22;38354;52.892;6.148;2023-05-10T13:35:03;15.60;99.90
52435;DHT22;38354;52.892;6.148;2023-05-10T13:37:29;15.70;99.90
52435;DHT22;38354;52.892;6.148;2023-05-10T13:39:55;15.70;99.90
52435;DHT22;38354;52.892;6.148;2023-05-10T13:42:22;15.80;99.90
52435;DHT22;38354;52.892;6.148;2023-05-10T13:44:49;15.80;99.90
52435;DHT22;38354;52.892;6.148;2023-05-10T13:47:15;15.90;99.90
52435;DHT22;38354;52.892;6.148;2023-05-10T13:49:41;15.90;99.90
52435;DHT22;38354;52.892;6.148;2023-05-10T13:52:07;15.90;99.90
52435;DHT22;38354;52.892;6.148;2023-05-10T13:54:36;16.00;99.90
52435;DHT22;38354;52.892;6.148;2023-05-10T13:57:02;16.00;99.90
52435;DHT22;38354;52.892;6.148;2023-05-10T13:59:28;15.80;99.90
52435;DHT22;38354;52.892;6.148;2023-05-10T14:01:57;15.80;99.90
52435;DHT22;38354;52.892;6.148;2023-05-10T14:04:22;15.60;99.90
52435;DHT22;38354;52.892;6.148;2023-05-10T14:06:48;15.60;99.90
52435;DHT22;38354;52.892;6.148;2023-05-10T14:09:14;15.60;99.90
52435;DHT22;38354;52.892;6.148;2023-05-10T14:11:40;15.50;99.90
52435;DHT22;38354;52.892;6.148;2023-05-10T14:14:09;15.50;99.90
52435;DHT22;38354;52.892;6.148;2023-05-10T14:16:34;15.40;99.90
52435;DHT22;38354;52.892;6.148;2023-05-10T14:19:00;15.30;99.90
52435;DHT22;38354;52.892;6.148;2023-05-10T14:21:27;15.30;99.90
52435;DHT22;38354;52.892;6.148;2023-05-10T14:23:54;15.30;99.90
52435;DHT22;38354;52.892;6.148;2023-05-10T14:26:21;15.30;99.90
52435;DHT22;38354;52.892;6.148;2023-05-10T14:28:47;15.30;99.90
52435;DHT22;38354;52.892;6.148;2023-05-10T14:31:12;15.30;99.90
52435;DHT22;38354;52.892;6.148;2023-05-10T14:33:39;15.40;99.90
52435;DHT22;38354;52.892;6.148;2023-05-10T14:36:06;15.50;99.90
52435;DHT22;38354;52.892;6.148;2023-05-10T14:38:32;15.50;99.90
52435;DHT22;38354;52.892;6.148;2023-05-10T14:40:58;15.60;99.90
52435;DHT22;38354;52.892;6.148;2023-05-10T14:43:24;15.80;99.90
52435;DHT22;38354;52.892;6.148;2023-05-10T14:45:49;15.90;99.90
52435;DHT22;38354;52.892;6.148;2023-05-10T14:48:15;15.90;99.90
52435;DHT22;38354;52.892;6.148;2023-05-10T14:50:43;15.90;99.90
52435;DHT22;38354;52.892;6.148;2023-05-10T14:53:09;15.90;99.90
52435;DHT22;38354;52.892;6.148;2023-05-10T14:55:34;15.90;99.90
52435;DHT22;38354;52.892;6.148;2023-05-10T14:58:01;15.90;99.90
52435;DHT22;38354;52.892;6.148;2023-05-10T15:00:28;15.90;99.90
52435;DHT22;38354;52.892;6.148;2023-05-10T15:02:54;15.90;99.90
52435;DHT22;38354;52.892;6.148;2023-05-10T15:05:20;15.90;99.90
52435;DHT22;38354;52.892;6.148;2023-05-10T15:07:45;15.80;99.90
52435;DHT22;38354;52.892;6.148;2023-05-10T15:10:11;15.80;99.90
52435;DHT22;38354;52.892;6.148;2023-05-10T15:12:37;15.70;99.90
52435;DHT22;38354;52.892;6.148;2023-05-10T15:15:04;15.70;99.90
52435;DHT22;38354;52.892;6.148;2023-05-10T15:17:30;15.70;99.90
52435;DHT22;38354;52.892;6.148;2023-05-10T15:19:56;15.70;99.90
52435;DHT22;38354;52.892;6.148;2023-05-10T15:22:22;15.80;99.90
52435;DHT22;38354;52.892;6.148;2023-05-10T15:24:47;15.80;99.90
52435;DHT22;38354;52.892;6.148;2023-05-10T15:27:13;15.80;99.90
52435;DHT22;38354;52.892;6.148;2023-05-10T15:29:39;15.80;99.90
52435;DHT22;38354;52.892;6.148;2023-05-10T15:32:05;15.80;99.90
52435;DHT22;38354;52.892;6.148;2023-05-10T15:34:30;15.80;99.90
52435;DHT22;38354;52.892;6.148;2023-05-10T15:36:56;15.80;99.90
52435;DHT22;38354;52.892;6.148;2023-05-10T15:39:22;15.70;99.90
52435;DHT22;38354;52.892;6.148;2023-05-10T15:41:48;15.70;99.90
52435;DHT22;38354;52.892;6.148;2023-05-10T15:44:14;15.70;99.90
52435;DHT22;38354;52.892;6.148;2023-05-10T15:46:39;15.50;99.90
52435;DHT22;38354;52.892;6.148;2023-05-10T15:49:05;15.50;99.90
52435;DHT22;38354;52.892;6.148;2023-05-10T15:51:32;15.40;99.90
52435;DHT22;38354;52.892;6.148;2023-05-10T15:54:00;15.40;99.90
52435;DHT22;38354;52.892;6.148;2023-05-10T15:56:27;15.40;99.90
52435;DHT22;38354;52.892;6.148;2023-05-10T15:58:53;15.30;99.90
52435;DHT22;38354;52.892;6.148;2023-05-10T16:01:19;15.40;99.90
52435;DHT22;38354;52.892;6.148;2023-05-10T16:03:45;15.30;99.90
52435;DHT22;38354;52.892;6.148;2023-05-10T16:06:11;15.30;99.90
52435;DHT22;38354;52.892;6.148;2023-05-10T16:08:36;15.40;99.90
52435;DHT22;38354;52.892;6.148;2023-05-10T16:11:02;15.30;99.90
52435;DHT22;38354;52.892;6.148;2023-05-10T16:13:28;15.30;99.90
52435;DHT22;38354;52.892;6.148;2023-05-10T16:15:54;15.20;99.90
52435;DHT22;38354;52.892;6.148;2023-05-10T16:18:20;15.20;99.90
52435;DHT22;38354;52.892;6.148;2023-05-10T16:20:45;15.20;99.90
52435;DHT22;38354;52.892;6.148;2023-05-10T16:23:11;15.10;99.90
52435;DHT22;38354;52.892;6.148;2023-05-10T16:25:38;15.10;99.90
52435;DHT22;38354;52.892;6.148;2023-05-10T16:28:04;15.10;99.90
52435;DHT22;38354;52.892;6.148;2023-05-10T16:30:29;15.00;99.90
52435;DHT22;38354;52.892;6.148;2023-05-10T16:32:56;15.10;99.90
52435;DHT22;38354;52.892;6.148;2023-05-10T16:35:22;15.00;99.90
52435;DHT22;38354;52.892;6.148;2023-05-10T16:37:49;15.10;99.90
52435;DHT22;38354;52.892;6.148;2023-05-10T16:40:15;15.10;99.90
52435;DHT22;38354;52.892;6.148;2023-05-10T16:42:41;15.10;99.90
52435;DHT22;38354;52.892;6.148;2023-05-10T16:45:07;15.20;99.90
52435;DHT22;38354;52.892;6.148;2023-05-10T16:47:37;15.10;99.90
52435;DHT22;38354;52.892;6.148;2023-05-10T16:50:04;15.10;99.90
52435;DHT22;38354;52.892;6.148;2023-05-10T16:52:31;15.10;99.90
52435;DHT22;38354;52.892;6.148;2023-05-10T16:54:57;15.10;99.90
52435;DHT22;38354;52.892;6.148;2023-05-10T16:57:23;15.00;99.90
52435;DHT22;38354;52.892;6.148;2023-05-10T16:59:49;15.00;99.90
52435;DHT22;38354;52.892;6.148;2023-05-10T17:02:18;15.00;99.90
52435;DHT22;38354;52.892;6.148;2023-05-10T17:04:44;15.00;99.90
52435;DHT22;38354;52.892;6.148;2023-05-10T17:07:10;15.00;99.90
52435;DHT22;38354;52.892;6.148;2023-05-10T17:09:37;14.90;99.90
52435;DHT22;38354;52.892;6.148;2023-05-10T17:12:03;14.90;99.90
52435;DHT22;38354;52.892;6.148;2023-05-10T17:14:29;14.90;99.90
52435;DHT22;38354;52.892;6.148;2023-05-10T17:16:54;14.90;99.90
52435;DHT22;38354;52.892;6.148;2023-05-10T17:19:20;14.80;99.90
52435;DHT22;38354;52.892;6.148;2023-05-10T17:21:46;14.90;99.90
52435;DHT22;38354;52.892;6.148;2023-05-10T17:24:12;14.90;99.90
52435;DHT22;38354;52.892;6.148;2023-05-10T17:26:38;14.90;99.90
52435;DHT22;38354;52.892;6.148;2023-05-10T17:29:03;14.80;99.90
52435;DHT22;38354;52.892;6.148;2023-05-10T17:31:29;14.90;99.90
52435;DHT22;38354;52.892;6.148;2023-05-10T17:33:55;14.80;99.90
52435;DHT22;38354;52.892;6.148;2023-05-10T17:36:21;14.80;99.90
52435;DHT22;38354;52.892;6.148;2023-05-10T17:38:47;14.90;99.90
52435;DHT22;38354;52.892;6.148;2023-05-10T17:41:13;14.90;99.90
52435;DHT22;38354;52.892;6.148;2023-05-10T17:43:39;14.80;99.90
52435;DHT22;38354;52.892;6.148;2023-05-10T17:46:04;14.80;99.90
52435;DHT22;38354;52.892;6.148;2023-05-10T17:48:30;14.70;99.90
52435;DHT22;38354;52.892;6.148;2023-05-10T17:50:55;14.80;99.90
52435;DHT22;38354;52.892;6.148;2023-05-10T17:53:21;14.70;99.90
52435;DHT22;38354;52.892;6.148;2023-05-10T17:55:47;14.70;99.90
52435;DHT22;38354;52.892;6.148;2023-05-10T17:58:12;14.70;99.90
52435;DHT22;38354;52.892;6.148;2023-05-10T18:00:38;14.70;99.90
52435;DHT22;38354;52.892;6.148;2023-05-10T18:03:04;14.60;99.90
52435;DHT22;38354;52.892;6.148;2023-05-10T18:05:30;14.60;99.90
52435;DHT22;38354;52.892;6.148;2023-05-10T18:07:59;14.60;99.90
52435;DHT22;38354;52.892;6.148;2023-05-10T18:10:24;14.60;99.90
52435;DHT22;38354;52.892;6.148;2023-05-10T18:12:50;14.60;99.90
52435;DHT22;38354;52.892;6.148;2023-05-10T18:15:16;14.60;99.90
52435;DHT22;38354;52.892;6.148;2023-05-10T18:17:42;14.50;99.90
52435;DHT22;38354;52.892;6.148;2023-05-10T18:20:08;14.50;99.90
52435;DHT22;38354;52.892;6.148;2023-05-10T18:22:34;14.50;99.90
52435;DHT22;38354;52.892;6.148;2023-05-10T18:25:00;14.50;99.90
52435;DHT22;38354;52.892;6.148;2023-05-10T18:27:26;14.50;99.90
52435;DHT22;38354;52.892;6.148;2023-05-10T18:29:53;14.50;99.90
52435;DHT22;38354;52.892;6.148;2023-05-10T18:32:18;14.50;99.90
52435;DHT22;38354;52.892;6.148;2023-05-10T18:34:44;14.50;99.90
52435;DHT22;38354;52.892;6.148;2023-05-10T18:37:10;14.50;99.90
52435;DHT22;38354;52.892;6.148;2023-05-10T18:39:36;14.50;99.90
52435;DHT22;38354;52.892;6.148;2023-05-10T18:42:06;14.50;99.90
52435;DHT22;38354;52.892;6.148;2023-05-10T18:44:32;14.50;99.90
52435;DHT22;38354;52.892;6.148;2023-05-10T18:46:58;14.50;99.90
52435;DHT22;38354;52.892;6.148;2023-05-10T18:49:24;14.50;99.90